createdAt,value
2019-04-22T00:00:57.297Z,15.00
2019-04-22T00:03:33.921Z,14.90
2019-04-22T00:06:17.737Z,14.80
2019-04-22T00:11:27.218Z,14.70
2019-04-22T00:13:52.024Z,14.70
2019-04-22T00:16:27.538Z,14.70
2019-04-22T00:21:26.337Z,14.60
2019-04-22T00:23:51.492Z,14.60
2019-04-22T00:26:24.508Z,14.50
2019-04-22T00:29:03.693Z,14.50
2019-04-22T00:31:29.802Z,14.40
2019-04-22T00:33:58.868Z,14.40
2019-04-22T00:36:32.688Z,14.40
2019-04-22T00:39:07.508Z,14.40
2019-04-22T00:41:35.929Z,14.30
2019-04-22T00:44:05.238Z,14.30
2019-04-22T00:46:31.756Z,14.30
2019-04-22T00:49:46.426Z,14.30
2019-04-22T00:51:36.515Z,14.20
2019-04-22T00:54:03.365Z,14.20
2019-04-22T00:56:38.692Z,14.20
2019-04-22T00:58:59.201Z,14.10
2019-04-22T01:01:34.991Z,14.00
2019-04-22T01:06:35.778Z,14.00
2019-04-22T01:09:11.023Z,14.00
2019-04-22T01:11:35.587Z,13.90
2019-04-22T01:14:09.158Z,13.90
2019-04-22T01:16:37.224Z,13.90
2019-04-22T01:19:10.454Z,13.90
2019-04-22T01:21:41.032Z,13.80
2019-04-22T01:24:27.743Z,13.80
2019-04-22T01:26:53.501Z,13.80
2019-04-22T01:29:21.610Z,13.80
2019-04-22T01:31:41.824Z,13.80
2019-04-22T01:34:23.203Z,13.80
2019-04-22T01:36:57.669Z,13.70
2019-04-22T01:39:38.648Z,13.70
2019-04-22T01:42:06.230Z,13.70
2019-04-22T01:44:42.201Z,13.60
2019-04-22T01:47:10.125Z,13.60
2019-04-22T01:49:40.109Z,13.50
2019-04-22T01:52:12.655Z,13.50
2019-04-22T01:54:43.205Z,13.50
2019-04-22T01:57:09.883Z,13.50
2019-04-22T01:59:38.411Z,13.40
2019-04-22T02:02:14.063Z,13.40
2019-04-22T02:07:21.128Z,13.30
2019-04-22T02:09:42.667Z,13.30
2019-04-22T02:12:12.862Z,13.30
2019-04-22T02:14:48.452Z,13.20
2019-04-22T02:17:22.510Z,13.20
2019-04-22T02:19:48.118Z,13.20
2019-04-22T02:22:17.655Z,13.10
2019-04-22T02:24:46.850Z,13.10
2019-04-22T02:27:23.555Z,13.20
2019-04-22T02:29:47.397Z,13.10
2019-04-22T02:32:43.246Z,13.10
2019-04-22T02:34:56.871Z,13.10
2019-04-22T02:40:01.605Z,13.10
2019-04-22T02:47:36.230Z,13.00
2019-04-22T02:49:58.959Z,12.90
2019-04-22T02:52:37.571Z,12.90
2019-04-22T02:57:35.706Z,12.80
2019-04-22T03:02:46.148Z,12.80
2019-04-22T03:07:22.988Z,12.80
2019-04-22T03:10:04.851Z,12.80
2019-04-22T03:17:34.786Z,12.80
2019-04-22T03:25:43.806Z,12.70
2019-04-22T03:43:02.439Z,12.40
2019-04-22T03:45:30.315Z,12.40
2019-04-22T03:50:36.867Z,12.20
2019-04-22T04:10:58.173Z,12.10
2019-04-22T04:13:33.995Z,12.10
2019-04-22T04:16:07.937Z,12.10
2019-04-22T04:19:02.592Z,12.10
2019-04-22T04:21:20.845Z,12.00
2019-04-22T04:23:50.496Z,12.00
2019-04-22T04:26:17.016Z,12.00
2019-04-22T04:31:22.472Z,11.90
2019-04-22T04:41:23.176Z,11.90
2019-04-22T04:43:50.509Z,11.80
2019-04-22T04:46:16.619Z,11.80
2019-04-22T04:53:41.959Z,11.80
2019-04-22T04:56:20.465Z,11.80
2019-04-22T04:59:02.349Z,11.70
2019-04-22T05:03:49.744Z,11.70
2019-04-22T05:06:12.722Z,11.70
2019-04-22T05:09:03.720Z,11.70
2019-04-22T05:11:13.967Z,11.70
2019-04-22T05:16:25.440Z,11.70
2019-04-22T05:18:49.205Z,11.70
2019-04-22T05:21:16.476Z,11.60
2019-04-22T05:23:43.938Z,11.70
2019-04-22T05:26:14.445Z,11.70
2019-04-22T05:28:51.596Z,11.70
2019-04-22T05:31:33.915Z,11.70
2019-04-22T05:33:56.437Z,11.70
2019-04-22T05:36:42.575Z,11.80
2019-04-22T05:39:00.253Z,11.80
2019-04-22T05:41:32.364Z,11.80
2019-04-22T05:44:06.298Z,11.90
2019-04-22T05:46:28.710Z,11.90
2019-04-22T05:48:59.827Z,12.00
2019-04-22T05:51:35.464Z,12.00
2019-04-22T05:54:01.546Z,12.00
2019-04-22T05:56:37.485Z,12.10
2019-04-22T05:59:03.786Z,12.10
2019-04-22T06:04:19.785Z,12.20
2019-04-22T06:06:30.672Z,12.20
2019-04-22T06:09:10.887Z,12.20
2019-04-22T06:11:50.990Z,12.20
2019-04-22T06:14:10.315Z,12.30
2019-04-22T06:16:44.095Z,12.40
2019-04-22T06:19:14.051Z,12.50
2019-04-22T06:21:46.470Z,12.50
2019-04-22T06:24:23.485Z,12.60
2019-04-22T06:26:57.266Z,12.60
2019-04-22T06:36:53.982Z,12.70
2019-04-22T06:39:26.038Z,12.80
2019-04-22T06:41:47.609Z,12.90
2019-04-22T06:44:18.021Z,13.00
2019-04-22T06:49:29.052Z,13.20
2019-04-22T06:51:55.724Z,13.30
2019-04-22T06:54:22.055Z,13.40
2019-04-22T06:56:50.669Z,13.50
2019-04-22T06:59:18.846Z,13.60
2019-04-22T07:01:52.555Z,13.60
2019-04-22T07:04:23.338Z,13.70
2019-04-22T07:06:56.475Z,13.80
2019-04-22T07:11:53.068Z,14.00
2019-04-22T07:14:18.222Z,14.00
2019-04-22T07:17:00.582Z,14.20
2019-04-22T07:19:27.625Z,14.20
2019-04-22T07:21:57.289Z,14.30
2019-04-22T07:27:00.256Z,14.40
2019-04-22T07:29:31.012Z,14.50
2019-04-22T07:34:33.174Z,14.60
2019-04-22T07:39:29.743Z,14.80
2019-04-22T07:41:56.122Z,14.90
2019-04-22T07:44:30.931Z,14.90
2019-04-22T07:47:08.403Z,15.00
2019-04-22T07:49:33.878Z,15.10
2019-04-22T07:51:58.791Z,15.00
2019-04-22T07:54:26.506Z,15.10
2019-04-22T07:57:02.080Z,15.10
2019-04-22T07:59:30.705Z,15.20
2019-04-22T08:01:55.822Z,15.30
2019-04-22T08:04:52.840Z,15.40
2019-04-22T08:07:05.134Z,15.50
2019-04-22T08:09:37.361Z,15.60
2019-04-22T08:11:59.599Z,15.70
2019-04-22T08:14:35.858Z,15.80
2019-04-22T08:17:19.255Z,15.90
2019-04-22T08:19:35.723Z,16.00
2019-04-22T08:22:05.981Z,16.10
2019-04-22T08:25:00.321Z,16.20
2019-04-22T08:27:05.946Z,16.40
2019-04-22T08:30:00.096Z,16.40
2019-04-22T08:32:08.678Z,16.60
2019-04-22T08:34:38.874Z,16.80
2019-04-22T08:37:37.426Z,16.90
2019-04-22T08:39:39.090Z,17.20
2019-04-22T08:42:09.911Z,17.40
2019-04-22T08:45:05.892Z,17.70
2019-04-22T08:49:40.923Z,18.10
2019-04-22T08:54:44.230Z,18.60
2019-04-22T08:57:10.660Z,18.80
2019-04-22T08:59:45.044Z,19.10
2019-04-22T09:02:12.066Z,19.30
2019-04-22T09:04:45.453Z,19.40
2019-04-22T09:07:20.657Z,19.60
2019-04-22T09:09:44.790Z,19.80
2019-04-22T09:12:14.550Z,19.90
2019-04-22T09:17:16.839Z,20.20
2019-04-22T09:19:47.783Z,20.20
2019-04-22T09:22:26.569Z,20.20
2019-04-22T09:24:46.849Z,20.30
2019-04-22T09:27:24.666Z,20.40
2019-04-22T09:32:24.928Z,20.30
2019-04-22T09:34:47.635Z,20.30
2019-04-22T09:40:03.245Z,20.30
2019-04-22T09:42:18.782Z,20.20
2019-04-22T09:44:51.801Z,20.20
2019-04-22T09:47:19.076Z,20.20
2019-04-22T09:49:58.435Z,20.20
2019-04-22T09:52:20.553Z,20.10
2019-04-22T09:57:21.202Z,20.10
2019-04-22T09:59:57.482Z,20.10
2019-04-22T10:02:26.742Z,20.10
2019-04-22T10:04:57.134Z,20.20
2019-04-22T10:07:27.262Z,20.20
2019-04-22T10:12:30.385Z,20.20
2019-04-22T10:14:55.926Z,20.30
2019-04-22T10:17:25.176Z,20.20
2019-04-22T10:19:53.060Z,20.30
2019-04-22T10:25:01.715Z,20.50
2019-04-22T10:27:26.291Z,20.50
2019-04-22T10:32:27.122Z,20.70
2019-04-22T10:34:40.919Z,20.70
2019-04-22T10:37:10.867Z,20.70
2019-04-22T10:39:43.877Z,20.80
2019-04-22T10:42:07.069Z,20.90
2019-04-22T10:44:37.209Z,21.00
2019-04-22T10:47:06.475Z,21.10
2019-04-22T10:49:36.150Z,21.20
2019-04-22T10:52:04.914Z,21.30
2019-04-22T10:54:33.718Z,21.40
2019-04-22T10:57:03.211Z,21.50
2019-04-22T10:59:32.326Z,21.60
2019-04-22T11:02:01.431Z,21.60
2019-04-22T11:04:32.244Z,21.70
2019-04-22T11:07:05.468Z,21.70
2019-04-22T11:09:31.384Z,21.80
2019-04-22T11:12:06.419Z,21.80
2019-04-22T11:14:30.862Z,21.90
2019-04-22T11:17:02.248Z,22.00
2019-04-22T11:19:29.941Z,22.00
2019-04-22T11:22:07.835Z,22.00
2019-04-22T11:24:28.833Z,22.00
2019-04-22T11:26:58.779Z,22.00
2019-04-22T11:29:27.883Z,21.90
2019-04-22T11:31:56.691Z,21.90
2019-04-22T11:34:26.807Z,21.90
2019-04-22T11:36:56.834Z,21.90
2019-04-22T11:39:26.024Z,22.00
2019-04-22T11:41:55.977Z,22.00
2019-04-22T11:44:25.422Z,22.20
2019-04-22T11:46:54.462Z,22.30
2019-04-22T11:49:23.685Z,22.50
2019-04-22T11:51:54.242Z,22.70
2019-04-22T11:54:22.965Z,22.70
2019-04-22T11:56:52.795Z,22.70
2019-04-22T11:59:22.630Z,22.80
2019-04-22T12:01:52.810Z,22.80
2019-04-22T12:04:40.919Z,22.70
2019-04-22T12:07:10.929Z,22.70
2019-04-22T12:09:39.754Z,22.80
2019-04-22T12:12:09.724Z,22.80
2019-04-22T12:14:38.406Z,22.80
2019-04-22T12:17:07.723Z,22.80
2019-04-22T12:19:37.820Z,22.90
2019-04-22T12:22:07.146Z,22.90
2019-04-22T12:24:36.483Z,22.90
2019-04-22T12:27:06.439Z,23.00
2019-04-22T12:29:35.370Z,23.00
2019-04-22T12:32:05.316Z,23.10
2019-04-22T12:34:35.391Z,23.20
2019-04-22T12:37:04.666Z,23.30
2019-04-22T12:39:33.703Z,23.30
2019-04-22T12:42:02.722Z,23.40
2019-04-22T12:44:32.749Z,23.50
2019-04-22T12:47:02.655Z,23.50
2019-04-22T12:49:34.026Z,23.60
2019-04-22T12:52:03.131Z,23.60
2019-04-22T12:54:33.083Z,23.60
2019-04-22T12:57:01.921Z,23.60
2019-04-22T12:59:31.891Z,23.50
2019-04-22T13:02:00.733Z,23.50
2019-04-22T13:04:30.160Z,23.50
2019-04-22T13:06:59.686Z,23.60
2019-04-22T13:09:29.416Z,23.60
2019-04-22T13:11:59.212Z,23.70
2019-04-22T13:14:28.023Z,23.80
2019-04-22T13:16:57.772Z,23.90
2019-04-22T13:19:28.274Z,23.90
2019-04-22T13:21:56.966Z,23.90
2019-04-22T13:24:26.015Z,23.90
2019-04-22T13:26:55.096Z,23.80
2019-04-22T13:29:25.133Z,23.80
2019-04-22T13:31:55.096Z,23.70
2019-04-22T13:34:30.453Z,23.60
2019-04-22T13:36:54.954Z,23.60
2019-04-22T13:39:25.068Z,23.60
2019-04-22T13:44:25.083Z,23.50
2019-04-22T13:47:10.391Z,23.50
2019-04-22T13:50:01.303Z,23.50
2019-04-22T13:52:33.271Z,23.40
2019-04-22T13:53:53.454Z,23.50
2019-04-22T13:54:53.340Z,23.40
2019-04-22T13:57:09.105Z,23.40
2019-04-22T13:59:35.225Z,23.40
2019-04-22T14:02:14.659Z,23.50
2019-04-22T14:04:46.323Z,23.40
2019-04-22T14:07:15.070Z,23.50
2019-04-22T14:09:44.510Z,23.70
2019-04-22T14:12:17.808Z,23.80
2019-04-22T14:14:47.400Z,23.90
2019-04-22T14:17:16.800Z,23.80
2019-04-22T14:19:46.590Z,23.80
2019-04-22T14:22:15.978Z,23.80
2019-04-22T14:24:44.963Z,23.70
2019-04-22T14:27:27.091Z,23.80
2019-04-22T14:29:44.018Z,23.70
2019-04-22T14:32:18.772Z,23.60
2019-04-22T14:34:43.034Z,23.50
2019-04-22T14:37:12.027Z,23.50
2019-04-22T14:39:41.953Z,23.50
2019-04-22T14:42:28.483Z,23.50
2019-04-22T14:45:22.013Z,23.50
2019-04-22T14:47:34.604Z,23.50
2019-04-22T14:50:06.342Z,23.40
2019-04-22T14:52:33.515Z,23.30
2019-04-22T14:54:54.451Z,23.20
2019-04-22T14:57:12.988Z,23.10
2019-04-22T14:59:42.160Z,23.10
2019-04-22T15:02:11.823Z,23.00
2019-04-22T15:04:42.881Z,23.00
2019-04-22T15:07:11.073Z,23.00
2019-04-22T15:09:39.953Z,23.10
2019-04-22T15:12:16.353Z,23.20
2019-04-22T15:14:39.595Z,23.20
2019-04-22T15:17:16.566Z,23.30
2019-04-22T15:19:57.954Z,23.40
2019-04-22T15:22:26.567Z,23.50
2019-04-22T15:24:56.567Z,23.50
2019-04-22T15:27:29.621Z,23.60
2019-04-22T15:29:57.067Z,23.70
2019-04-22T15:32:27.279Z,23.70
2019-04-22T15:34:57.313Z,23.70
2019-04-22T15:37:26.460Z,23.70
2019-04-22T15:39:56.810Z,23.70
2019-04-22T15:42:28.676Z,23.70
2019-04-22T15:44:56.068Z,23.70
2019-04-22T15:47:25.000Z,23.70
2019-04-22T15:49:54.027Z,23.60
2019-04-22T15:52:31.128Z,23.60
2019-04-22T15:54:54.012Z,23.60
2019-04-22T15:57:24.599Z,23.60
2019-04-22T16:00:06.726Z,23.70
2019-04-22T16:02:25.574Z,23.70
2019-04-22T16:04:54.622Z,23.70
2019-04-22T16:07:26.017Z,23.60
2019-04-22T16:09:53.929Z,23.60
2019-04-22T16:12:30.883Z,23.60
2019-04-22T16:14:56.941Z,23.50
2019-04-22T16:17:24.366Z,23.50
2019-04-22T16:19:53.289Z,23.50
2019-04-22T16:22:24.976Z,23.50
2019-04-22T16:25:04.770Z,23.60
2019-04-22T16:27:34.271Z,23.60
2019-04-22T16:30:03.649Z,23.60
2019-04-22T16:32:33.702Z,23.60
2019-04-22T16:35:04.279Z,23.50
2019-04-22T16:37:32.767Z,23.40
2019-04-22T16:40:03.028Z,23.30
2019-04-22T16:42:40.083Z,23.30
2019-04-22T16:45:02.137Z,23.20
2019-04-22T16:47:31.349Z,23.20
2019-04-22T16:50:01.654Z,23.00
2019-04-22T16:52:30.541Z,23.00
2019-04-22T16:54:59.227Z,23.00
2019-04-22T16:57:28.156Z,23.00
2019-04-22T16:59:58.400Z,22.90
2019-04-22T17:02:29.013Z,22.90
2019-04-22T17:04:59.624Z,22.90
2019-04-22T17:07:29.998Z,22.90
2019-04-22T17:09:59.798Z,22.80
2019-04-22T17:12:40.871Z,22.80
2019-04-22T17:15:04.310Z,22.80
2019-04-22T17:17:30.669Z,22.80
2019-04-22T17:19:59.675Z,22.80
2019-04-22T17:22:29.552Z,22.70
2019-04-22T17:24:58.314Z,22.70
2019-04-22T17:27:29.352Z,22.70
2019-04-22T17:29:58.899Z,22.60
2019-04-22T17:32:28.787Z,22.60
2019-04-22T17:34:57.600Z,22.60
2019-04-22T17:37:29.796Z,22.50
2019-04-22T17:40:10.537Z,22.50
2019-04-22T17:42:48.052Z,22.50
2019-04-22T17:45:22.323Z,22.40
2019-04-22T17:48:11.892Z,22.40
2019-04-22T17:50:46.806Z,22.30
2019-04-22T17:53:17.149Z,22.30
2019-04-22T17:55:49.261Z,22.30
2019-04-22T17:58:17.602Z,22.20
2019-04-22T18:00:39.867Z,22.20
2019-04-22T18:03:03.174Z,22.10
2019-04-22T18:05:34.664Z,22.10
2019-04-22T18:08:17.711Z,22.00
2019-04-22T18:10:51.026Z,22.00
2019-04-22T18:15:48.678Z,21.90
2019-04-22T18:18:20.236Z,21.80
2019-04-22T18:20:44.318Z,21.70
2019-04-22T18:23:06.498Z,21.60
2019-04-22T18:25:53.515Z,21.50
2019-04-22T18:28:24.672Z,21.40
2019-04-22T18:30:44.650Z,21.40
2019-04-22T18:33:21.115Z,21.30
2019-04-22T18:35:46.816Z,21.30
2019-04-22T18:38:32.478Z,21.20
2019-04-22T18:40:53.619Z,21.10
2019-04-22T18:43:26.182Z,21.00
2019-04-22T18:46:12.646Z,21.00
2019-04-22T18:48:15.677Z,20.90
2019-04-22T18:50:58.097Z,20.90
2019-04-22T18:53:34.913Z,20.80
2019-04-22T18:56:16.423Z,20.60
2019-04-22T18:58:36.693Z,20.50
2019-04-22T19:00:54.864Z,20.50
2019-04-22T19:03:29.471Z,20.40
2019-04-22T19:06:27.930Z,20.30
2019-04-22T19:08:43.052Z,20.20
2019-04-22T19:11:17.481Z,20.10
2019-04-22T19:16:25.784Z,20.00
2019-04-22T19:18:45.949Z,19.90
2019-04-22T19:21:15.066Z,19.90
2019-04-22T19:23:50.294Z,19.80
2019-04-22T19:26:20.504Z,19.80
2019-04-22T19:28:49.649Z,19.70
2019-04-22T19:33:53.778Z,19.60
2019-04-22T19:36:20.423Z,19.50
2019-04-22T19:38:49.755Z,19.50
2019-04-22T19:41:24.063Z,19.50
2019-04-22T19:43:53.266Z,19.40
2019-04-22T19:46:20.935Z,19.40
2019-04-22T19:49:13.631Z,19.30
2019-04-22T19:51:23.585Z,19.30
2019-04-22T19:53:51.266Z,19.20
2019-04-22T19:56:17.822Z,19.20
2019-04-22T19:58:49.204Z,19.20
2019-04-22T20:01:36.936Z,19.10
2019-04-22T20:04:15.090Z,19.00
2019-04-22T20:06:44.402Z,19.00
2019-04-22T20:09:21.068Z,18.90
2019-04-22T20:11:44.503Z,18.80
2019-04-22T20:14:19.857Z,18.80
2019-04-22T20:16:43.903Z,18.80
2019-04-22T20:19:25.551Z,18.70
2019-04-22T20:21:49.432Z,18.70
2019-04-22T20:24:06.979Z,18.60
2019-04-22T20:26:49.979Z,18.50
2019-04-22T20:29:27.103Z,18.50
2019-04-22T20:31:54.083Z,18.50
2019-04-22T20:34:28.297Z,18.40
2019-04-22T20:37:10.443Z,18.40
2019-04-22T20:39:28.832Z,18.30
2019-04-22T20:41:53.394Z,18.30
2019-04-22T20:44:30.815Z,18.20
2019-04-22T20:47:09.117Z,18.20
2019-04-22T20:49:47.420Z,18.10
2019-04-22T20:52:22.183Z,18.00
2019-04-22T20:54:47.974Z,18.00
2019-04-22T20:57:09.479Z,17.90
2019-04-22T20:59:44.272Z,17.90
2019-04-22T21:02:12.182Z,17.90
2019-04-22T21:04:39.309Z,17.80
2019-04-22T21:07:15.158Z,17.80
2019-04-22T21:09:43.110Z,17.80
2019-04-22T21:12:13.827Z,17.80
2019-04-22T21:14:46.026Z,17.70
2019-04-22T21:17:15.351Z,17.70
2019-04-22T21:19:56.773Z,17.70
2019-04-22T21:22:22.688Z,17.70
2019-04-22T21:24:45.985Z,17.60
2019-04-22T21:27:21.028Z,17.60
2019-04-22T21:29:43.518Z,17.50
2019-04-22T21:32:17.603Z,17.50
2019-04-22T21:34:55.465Z,17.40
2019-04-22T21:37:26.457Z,17.30
2019-04-22T21:39:46.650Z,17.30
2019-04-22T21:42:18.561Z,17.20
2019-04-22T21:44:47.673Z,17.20
2019-04-22T21:47:33.107Z,17.20
2019-04-22T21:50:07.877Z,17.30
2019-04-22T21:52:25.603Z,17.20
2019-04-22T21:55:00.398Z,17.20
2019-04-22T21:57:27.860Z,17.10
2019-04-22T21:59:57.974Z,17.00
2019-04-22T22:02:28.206Z,17.00
2019-04-22T22:04:52.794Z,17.00
2019-04-22T22:07:13.589Z,17.00
2019-04-22T22:10:02.824Z,17.00
2019-04-22T22:12:29.911Z,16.90
2019-04-22T22:15:00.409Z,16.90
2019-04-22T22:17:28.504Z,16.80
2019-04-22T22:20:00.279Z,16.80
2019-04-22T22:22:48.330Z,16.80
2019-04-22T22:25:01.188Z,16.80
2019-04-22T22:27:30.056Z,16.80
2019-04-22T22:30:18.761Z,16.70
2019-04-22T22:32:33.714Z,16.60
2019-04-22T22:35:03.189Z,16.60
2019-04-22T22:37:22.146Z,16.50
2019-04-22T22:39:54.379Z,16.40
2019-04-22T22:42:22.563Z,16.40
2019-04-22T22:44:52.695Z,16.40
2019-04-22T22:47:40.915Z,16.40
2019-04-22T22:50:12.509Z,16.30
2019-04-22T22:55:10.862Z,16.30
2019-04-22T22:57:44.367Z,16.20
2019-04-22T23:00:13.645Z,16.10
2019-04-22T23:02:59.564Z,16.00
2019-04-22T23:05:09.763Z,16.00
2019-04-22T23:07:46.326Z,16.00
2019-04-22T23:10:14.023Z,16.00
2019-04-22T23:12:48.500Z,15.90
2019-04-22T23:15:09.144Z,15.90
2019-04-22T23:17:26.589Z,15.80
2019-04-22T23:19:56.101Z,15.80
2019-04-22T23:22:32.523Z,15.80
2019-04-22T23:25:17.336Z,15.80
2019-04-22T23:27:49.158Z,15.80
2019-04-22T23:30:21.529Z,15.80
2019-04-22T23:33:01.932Z,15.70
2019-04-22T23:35:33.831Z,15.80
2019-04-22T23:38:07.349Z,15.70
2019-04-22T23:40:38.819Z,15.70
2019-04-22T23:43:17.288Z,15.70
2019-04-22T23:45:40.261Z,15.70
2019-04-22T23:48:03.286Z,15.70
2019-04-22T23:50:39.211Z,15.70
2019-04-22T23:53:11.467Z,15.60
2019-04-22T23:55:43.542Z,15.60
2019-04-22T23:58:27.667Z,15.60
